createdAt,value
2018-10-02T00:01:39.868Z,5.90
2018-10-02T00:04:08.523Z,5.53
2018-10-02T00:06:37.317Z,5.27
2018-10-02T00:09:08.967Z,5.53
2018-10-02T00:11:42.919Z,5.63
2018-10-02T00:14:16.780Z,5.70
2018-10-02T00:16:45.575Z,5.97
2018-10-02T00:19:14.274Z,7.07
2018-10-02T00:21:43.172Z,5.77
2018-10-02T00:24:11.867Z,8.00
2018-10-02T00:26:40.643Z,5.80
2018-10-02T00:29:09.585Z,8.43
2018-10-02T00:31:38.328Z,8.63
2018-10-02T00:34:07.284Z,7.10
2018-10-02T00:36:36.352Z,6.80
2018-10-02T00:39:05.904Z,10.13
2018-10-02T00:41:34.745Z,9.47
2018-10-02T00:44:03.506Z,7.60
2018-10-02T00:46:32.239Z,9.00
2018-10-02T00:49:01.048Z,6.90
2018-10-02T00:51:29.793Z,11.30
2018-10-02T00:53:58.451Z,10.10
2018-10-02T00:56:27.204Z,7.37
2018-10-02T00:58:55.916Z,9.07
2018-10-02T01:01:24.700Z,8.23
2018-10-02T01:03:53.417Z,7.80
2018-10-02T01:06:22.069Z,8.27
2018-10-02T01:08:50.740Z,7.73
2018-10-02T01:11:19.392Z,7.43
2018-10-02T01:13:48.029Z,8.83
2018-10-02T01:16:16.700Z,7.10
2018-10-02T01:18:45.359Z,8.90
2018-10-02T01:21:14.134Z,7.70
2018-10-02T01:23:42.801Z,7.20
2018-10-02T01:26:11.500Z,7.57
2018-10-02T01:28:40.257Z,8.13
2018-10-02T01:31:09.005Z,11.33
2018-10-02T01:33:37.695Z,8.37
2018-10-02T01:36:07.771Z,8.70
2018-10-02T01:38:36.503Z,12.40
2018-10-02T01:41:05.320Z,8.77
2018-10-02T01:43:33.952Z,10.40
2018-10-02T01:46:02.787Z,10.63
2018-10-02T01:48:31.512Z,8.53
2018-10-02T01:51:00.497Z,9.47
2018-10-02T01:53:29.256Z,10.13
2018-10-02T01:55:57.903Z,8.67
2018-10-02T01:58:26.725Z,10.60
2018-10-02T02:00:55.472Z,11.10
2018-10-02T02:03:24.123Z,10.83
2018-10-02T02:05:52.816Z,11.30
2018-10-02T02:08:21.569Z,11.03
2018-10-02T02:10:50.285Z,7.77
2018-10-02T02:13:18.984Z,8.40
2018-10-02T02:15:47.700Z,9.23
2018-10-02T02:18:16.440Z,8.70
2018-10-02T02:20:45.224Z,8.67
2018-10-02T02:23:13.928Z,8.50
2018-10-02T02:25:42.642Z,7.90
2018-10-02T02:28:11.471Z,10.67
2018-10-02T02:30:40.173Z,7.07
2018-10-02T02:33:08.851Z,8.07
2018-10-02T02:35:37.565Z,11.50
2018-10-02T02:38:06.534Z,12.77
2018-10-02T02:40:35.203Z,9.87
2018-10-02T02:43:03.934Z,19.03
2018-10-02T02:45:32.680Z,14.17
2018-10-02T02:48:06.540Z,23.70
2018-10-02T02:50:40.306Z,12.37
2018-10-02T02:53:14.104Z,11.80
2018-10-02T02:55:42.804Z,13.27
2018-10-02T02:58:11.496Z,11.30
2018-10-02T03:00:40.346Z,14.07
2018-10-02T03:03:09.030Z,15.37
2018-10-02T03:05:37.724Z,16.17
2018-10-02T03:08:06.372Z,20.30
2018-10-02T03:10:35.232Z,23.80
2018-10-02T03:13:04.028Z,22.73
2018-10-02T03:15:32.806Z,19.70
2018-10-02T03:18:01.672Z,19.73
2018-10-02T03:20:30.404Z,20.60
2018-10-02T03:22:59.100Z,20.50
2018-10-02T03:25:27.737Z,20.77
2018-10-02T03:27:56.411Z,21.07
2018-10-02T03:30:25.092Z,19.97
2018-10-02T03:32:53.833Z,20.27
2018-10-02T03:35:22.593Z,19.77
2018-10-02T03:37:51.404Z,17.63
2018-10-02T03:40:20.028Z,20.00
2018-10-02T03:42:48.743Z,20.80
2018-10-02T03:45:17.542Z,17.37
2018-10-02T03:47:46.373Z,18.77
2018-10-02T03:50:15.103Z,16.87
2018-10-02T03:52:43.764Z,16.83
2018-10-02T03:55:12.544Z,15.17
2018-10-02T03:57:41.269Z,17.47
2018-10-02T04:00:10.024Z,18.50
2018-10-02T04:02:38.726Z,17.50
2018-10-02T04:05:07.516Z,15.30
2018-10-02T04:07:36.240Z,14.57
2018-10-02T04:10:04.902Z,15.23
2018-10-02T04:12:33.553Z,14.13
2018-10-02T04:15:02.269Z,16.70
2018-10-02T04:17:31.186Z,12.43
2018-10-02T04:19:59.873Z,12.70
2018-10-02T04:22:28.547Z,15.77
2018-10-02T04:24:57.256Z,17.70
2018-10-02T04:27:25.944Z,13.30
2018-10-02T04:29:54.619Z,15.80
2018-10-02T04:32:23.292Z,14.03
2018-10-02T04:34:51.977Z,11.40
2018-10-02T04:37:20.610Z,14.27
2018-10-02T04:39:49.412Z,17.50
2018-10-02T04:42:18.232Z,31.90
2018-10-02T04:44:47.242Z,19.17
2018-10-02T04:47:15.934Z,24.87
2018-10-02T04:49:44.688Z,23.57
2018-10-02T04:52:13.418Z,27.03
2018-10-02T04:54:42.083Z,25.70
2018-10-02T04:57:10.748Z,23.00
2018-10-02T04:59:39.525Z,31.53
2018-10-02T05:02:08.275Z,28.77
2018-10-02T05:04:36.982Z,25.40
2018-10-02T05:07:05.717Z,23.77
2018-10-02T05:09:34.408Z,20.13
2018-10-02T05:12:03.185Z,20.73
2018-10-02T05:14:31.896Z,20.53
2018-10-02T05:17:00.718Z,20.27
2018-10-02T05:19:29.500Z,19.10
2018-10-02T05:21:58.230Z,17.57
2018-10-02T05:24:27.006Z,21.47
2018-10-02T05:26:55.741Z,20.07
2018-10-02T05:29:24.485Z,16.83
2018-10-02T05:31:53.309Z,19.83
2018-10-02T05:34:22.044Z,20.40
2018-10-02T05:36:50.742Z,18.00
2018-10-02T05:39:19.461Z,22.87
2018-10-02T05:41:48.179Z,25.00
2018-10-02T05:44:16.944Z,24.50
2018-10-02T05:46:45.689Z,25.67
2018-10-02T05:49:14.432Z,20.17
2018-10-02T05:51:43.224Z,22.43
2018-10-02T05:54:11.942Z,32.87
2018-10-02T05:56:40.677Z,19.77
2018-10-02T05:59:09.524Z,17.07
2018-10-02T06:01:38.334Z,24.27
2018-10-02T06:04:07.152Z,22.97
2018-10-02T06:06:35.786Z,21.20
2018-10-02T06:09:06.148Z,20.50
2018-10-02T06:11:34.828Z,16.40
2018-10-02T06:14:03.486Z,16.67
2018-10-02T06:16:32.141Z,18.50
2018-10-02T06:19:00.832Z,18.77
2018-10-02T06:21:29.558Z,17.60
2018-10-02T06:23:58.317Z,19.03
2018-10-02T06:26:27.098Z,20.80
2018-10-02T06:28:55.817Z,15.50
2018-10-02T06:31:24.555Z,18.47
2018-10-02T06:33:53.290Z,15.57
2018-10-02T06:36:21.965Z,17.23
2018-10-02T06:38:50.734Z,16.50
2018-10-02T06:41:19.598Z,15.40
2018-10-02T06:43:48.501Z,16.37
2018-10-02T06:46:17.099Z,15.63
2018-10-02T06:48:45.819Z,15.70
2018-10-02T06:51:14.600Z,14.60
2018-10-02T06:53:43.245Z,18.20
2018-10-02T06:56:11.934Z,17.97
2018-10-02T06:58:40.626Z,18.63
2018-10-02T07:01:09.381Z,19.50
2018-10-02T07:03:38.099Z,13.10
2018-10-02T07:06:07.096Z,13.30
2018-10-02T07:08:35.970Z,15.43
2018-10-02T07:11:04.752Z,15.50
2018-10-02T07:13:33.582Z,14.67
2018-10-02T07:16:02.245Z,12.77
2018-10-02T07:18:30.898Z,14.07
2018-10-02T07:20:59.685Z,11.13
2018-10-02T07:23:28.442Z,12.70
2018-10-02T07:25:57.313Z,12.60
2018-10-02T07:28:26.021Z,15.67
2018-10-02T07:30:54.839Z,14.33
2018-10-02T07:33:23.537Z,16.67
2018-10-02T07:35:52.328Z,13.57
2018-10-02T07:38:20.972Z,17.73
2018-10-02T07:40:49.658Z,14.30
2018-10-02T07:43:18.346Z,17.00
2018-10-02T07:45:47.019Z,15.55
2018-10-02T07:48:15.821Z,15.32
2018-10-02T07:50:44.717Z,19.07
2018-10-02T07:53:13.325Z,15.98
2018-10-02T07:55:42.193Z,15.18
2018-10-02T07:58:10.894Z,14.85
2018-10-02T08:00:39.564Z,13.70
2018-10-02T08:03:08.335Z,14.20
2018-10-02T08:05:37.164Z,14.10
2018-10-02T08:08:05.877Z,14.20
2018-10-02T08:10:34.566Z,13.00
2018-10-02T08:13:03.443Z,12.98
2018-10-02T08:15:32.332Z,13.83
2018-10-02T08:18:01.092Z,13.60
2018-10-02T08:20:29.901Z,13.88
2018-10-02T08:22:58.708Z,14.87
2018-10-02T08:25:27.445Z,13.58
2018-10-02T08:27:56.203Z,14.15
2018-10-02T08:30:25.005Z,13.90
2018-10-02T08:32:53.845Z,13.45
2018-10-02T08:35:22.547Z,13.15
2018-10-02T08:37:51.537Z,14.23
2018-10-02T08:40:20.240Z,12.95
2018-10-02T08:42:49.123Z,12.70
2018-10-02T08:45:17.847Z,15.20
2018-10-02T08:47:46.572Z,15.08
2018-10-02T08:50:15.439Z,13.95
2018-10-02T08:52:44.164Z,13.20
2018-10-02T08:55:12.902Z,12.80
2018-10-02T08:57:41.705Z,12.73
2018-10-02T09:00:10.557Z,14.03
2018-10-02T09:02:39.225Z,13.35
2018-10-02T09:05:08.045Z,13.88
2018-10-02T09:07:36.852Z,13.93
2018-10-02T09:10:05.640Z,15.00
2018-10-02T09:12:34.432Z,12.35
2018-10-02T09:15:03.094Z,14.05
2018-10-02T09:17:31.760Z,13.65
2018-10-02T09:20:00.425Z,15.45
2018-10-02T09:22:29.146Z,14.15
2018-10-02T09:25:12.576Z,13.70
2018-10-02T09:27:41.494Z,13.83
2018-10-02T09:30:15.518Z,14.05
2018-10-02T09:32:49.470Z,14.55
2018-10-02T09:35:23.376Z,15.15
2018-10-02T09:37:57.162Z,14.07
2018-10-02T09:40:32.749Z,17.50
2018-10-02T09:43:06.684Z,15.93
2018-10-02T09:45:35.547Z,14.90
2018-10-02T09:48:09.095Z,14.63
2018-10-02T09:50:37.872Z,16.27
2018-10-02T09:53:06.585Z,13.45
2018-10-02T09:55:35.589Z,13.78
2018-10-02T09:58:04.957Z,14.23
2018-10-02T10:00:38.925Z,13.75
2018-10-02T10:03:07.786Z,14.70
2018-10-02T10:05:36.429Z,14.98
2018-10-02T10:08:05.093Z,16.10
2018-10-02T10:10:33.875Z,15.28
2018-10-02T10:13:02.725Z,15.23
2018-10-02T10:15:31.425Z,16.77
2018-10-02T10:18:00.180Z,16.12
2018-10-02T10:20:28.952Z,15.50
2018-10-02T10:22:57.674Z,15.85
2018-10-02T10:25:26.682Z,15.43
2018-10-02T10:27:55.354Z,16.05
2018-10-02T10:30:24.146Z,16.95
2018-10-02T10:32:53.074Z,15.88
2018-10-02T10:35:21.878Z,16.60
2018-10-02T10:37:50.625Z,14.87
2018-10-02T10:40:19.501Z,16.20
2018-10-02T10:42:48.237Z,15.85
2018-10-02T10:45:17.103Z,16.17
2018-10-02T10:47:46.474Z,15.45
2018-10-02T10:50:15.140Z,16.17
2018-10-02T10:52:43.941Z,15.48
2018-10-02T10:55:32.970Z,16.87
2018-10-02T10:58:01.783Z,15.32
2018-10-02T11:00:30.635Z,15.00
2018-10-02T11:02:59.473Z,14.95
2018-10-02T11:05:28.496Z,13.80
2018-10-02T11:07:57.274Z,15.65
2018-10-02T11:10:26.073Z,14.80
2018-10-02T11:12:54.825Z,13.18
2018-10-02T11:15:24.548Z,12.73
2018-10-02T11:17:53.198Z,15.15
2018-10-02T11:20:31.812Z,14.45
2018-10-02T11:23:00.502Z,11.83
2018-10-02T11:25:29.328Z,12.80
2018-10-02T11:27:58.102Z,12.95
2018-10-02T11:30:26.869Z,11.35
2018-10-02T11:32:55.570Z,13.00
2018-10-02T11:35:24.480Z,13.38
2018-10-02T11:37:53.267Z,14.70
2018-10-02T11:40:22.082Z,11.95
2018-10-02T11:42:50.807Z,11.38
2018-10-02T11:45:19.762Z,12.85
2018-10-02T11:47:48.491Z,12.13
2018-10-02T11:50:17.225Z,10.30
2018-10-02T11:52:45.978Z,8.68
2018-10-02T11:55:14.875Z,9.38
2018-10-02T11:57:43.618Z,9.95
2018-10-02T12:00:12.405Z,9.90
2018-10-02T12:02:41.318Z,9.55
2018-10-02T12:05:10.055Z,10.75
2018-10-02T12:07:38.766Z,10.18
2018-10-02T12:10:07.686Z,9.58
2018-10-02T12:12:36.401Z,9.38
2018-10-02T12:15:05.288Z,9.65
2018-10-02T12:17:34.018Z,8.70
2018-10-02T12:20:02.771Z,9.50
2018-10-02T12:22:31.484Z,8.93
2018-10-02T12:25:00.162Z,10.00
2018-10-02T12:27:29.027Z,9.20
2018-10-02T12:29:57.740Z,9.65
2018-10-02T12:32:26.535Z,8.65
2018-10-02T12:34:55.370Z,8.95
2018-10-02T12:37:24.074Z,9.10
2018-10-02T12:39:52.779Z,10.23
2018-10-02T12:42:21.549Z,9.05
2018-10-02T12:44:50.358Z,9.83
2018-10-02T12:47:19.075Z,8.40
2018-10-02T12:49:47.864Z,9.35
2018-10-02T12:52:16.674Z,8.58
2018-10-02T12:54:45.342Z,10.78
2018-10-02T12:57:14.006Z,8.88
2018-10-02T12:59:42.762Z,8.70
2018-10-02T13:02:11.490Z,8.93
2018-10-02T13:04:40.227Z,9.45
2018-10-02T13:07:09.384Z,11.30
2018-10-02T13:09:38.133Z,9.08
2018-10-02T13:12:06.961Z,11.85
2018-10-02T13:14:35.644Z,9.43
2018-10-02T13:17:04.469Z,8.68
2018-10-02T13:19:33.230Z,8.18
2018-10-02T13:22:01.976Z,8.75
2018-10-02T13:24:30.762Z,7.45
2018-10-02T13:26:59.452Z,8.80
2018-10-02T13:29:28.405Z,8.63
2018-10-02T13:31:57.203Z,9.55
2018-10-02T13:34:26.059Z,8.73
2018-10-02T13:36:54.918Z,9.00
2018-10-02T13:39:23.609Z,7.93
2018-10-02T13:41:52.425Z,8.20
2018-10-02T13:44:21.131Z,8.67
2018-10-02T13:46:49.932Z,9.17
2018-10-02T13:49:18.640Z,9.73
2018-10-02T13:51:47.378Z,9.63
2018-10-02T13:54:16.130Z,8.80
2018-10-02T13:56:44.929Z,9.40
2018-10-02T13:59:13.657Z,8.43
2018-10-02T14:01:42.385Z,13.63
2018-10-02T14:04:11.182Z,11.13
2018-10-02T14:06:40.061Z,9.10
2018-10-02T14:09:09.208Z,9.20
2018-10-02T14:11:37.967Z,7.00
2018-10-02T14:14:06.737Z,7.57
2018-10-02T14:16:35.608Z,7.70
2018-10-02T14:19:04.340Z,9.97
2018-10-02T14:21:33.152Z,7.53
2018-10-02T14:24:01.970Z,7.23
2018-10-02T14:26:30.686Z,8.20
2018-10-02T14:28:59.409Z,10.93
2018-10-02T14:31:28.082Z,9.20
2018-10-02T14:33:56.832Z,9.17
2018-10-02T14:36:26.519Z,10.07
2018-10-02T14:38:55.372Z,7.30
2018-10-02T14:41:24.225Z,9.93
2018-10-02T14:43:52.885Z,9.50
2018-10-02T14:46:21.604Z,9.47
2018-10-02T14:48:50.310Z,8.60
2018-10-02T14:51:19.186Z,10.60
2018-10-02T14:53:48.000Z,8.53
2018-10-02T14:56:16.770Z,10.63
2018-10-02T14:58:45.491Z,13.90
2018-10-02T15:01:14.229Z,9.03
2018-10-02T15:03:43.008Z,11.87
2018-10-02T15:06:11.833Z,14.30
2018-10-02T15:08:40.614Z,16.17
2018-10-02T15:11:09.327Z,10.80
2018-10-02T15:13:38.174Z,13.53
2018-10-02T15:16:06.890Z,15.03
2018-10-02T15:18:35.675Z,12.53
2018-10-02T15:21:04.518Z,17.70
2018-10-02T15:23:33.456Z,10.30
2018-10-02T15:26:02.276Z,13.27
2018-10-02T15:28:30.987Z,22.03
2018-10-02T15:30:59.683Z,18.83
2018-10-02T15:33:28.575Z,22.23
2018-10-02T15:35:57.402Z,30.47
2018-10-02T15:38:26.241Z,26.07
2018-10-02T15:40:55.013Z,27.83
2018-10-02T15:43:23.780Z,29.37
2018-10-02T15:45:52.457Z,20.57
2018-10-02T15:48:21.238Z,21.33
2018-10-02T15:50:50.106Z,22.33
2018-10-02T15:53:18.857Z,31.30
2018-10-02T15:55:47.680Z,10.93
2018-10-02T15:58:16.426Z,23.37
2018-10-02T16:00:45.221Z,21.90
2018-10-02T16:03:14.116Z,18.63
2018-10-02T16:05:42.836Z,16.67
2018-10-02T16:08:11.572Z,20.97
2018-10-02T16:10:40.347Z,18.43
2018-10-02T16:13:09.140Z,14.60
2018-10-02T16:15:37.896Z,13.93
2018-10-02T16:18:06.747Z,14.23
2018-10-02T16:20:35.322Z,11.87
2018-10-02T16:23:04.192Z,14.20
2018-10-02T16:25:33.083Z,11.30
2018-10-02T16:28:02.070Z,8.87
2018-10-02T16:30:30.942Z,10.53
2018-10-02T16:32:59.636Z,8.87
2018-10-02T16:35:28.331Z,8.97
2018-10-02T16:37:57.061Z,8.73
2018-10-02T16:40:25.786Z,22.60
2018-10-02T16:42:54.571Z,10.33
2018-10-02T16:45:23.327Z,9.97
2018-10-02T16:47:52.021Z,10.37
2018-10-02T16:50:20.690Z,13.17
2018-10-02T16:52:49.341Z,10.87
2018-10-02T16:55:18.073Z,12.40
2018-10-02T16:57:46.851Z,14.53
2018-10-02T17:00:15.809Z,13.17
2018-10-02T17:02:44.549Z,12.13
2018-10-02T17:05:13.278Z,12.13
2018-10-02T17:07:41.922Z,12.00
2018-10-02T17:10:10.683Z,9.67
2018-10-02T17:12:39.438Z,9.60
2018-10-02T17:15:08.317Z,9.90
2018-10-02T17:17:37.161Z,10.63
2018-10-02T17:20:06.503Z,8.97
2018-10-02T17:22:35.212Z,8.27
2018-10-02T17:25:04.157Z,13.07
2018-10-02T17:27:32.814Z,14.83
2018-10-02T17:30:01.620Z,11.83
2018-10-02T17:32:30.294Z,11.60
2018-10-02T17:34:59.158Z,13.70
2018-10-02T17:37:27.902Z,9.37
2018-10-02T17:39:56.647Z,10.83
2018-10-02T17:42:25.371Z,9.80
2018-10-02T17:44:54.028Z,10.53
2018-10-02T17:47:22.697Z,12.20
2018-10-02T17:49:51.543Z,10.30
2018-10-02T17:52:20.275Z,10.83
2018-10-02T17:54:48.921Z,11.17
2018-10-02T17:57:17.741Z,11.60
2018-10-02T17:59:46.588Z,11.20
2018-10-02T18:02:15.315Z,12.03
2018-10-02T18:04:43.985Z,9.67
2018-10-02T18:07:13.005Z,10.03
2018-10-02T18:09:41.785Z,11.53
2018-10-02T18:12:10.565Z,10.23
2018-10-02T18:14:39.235Z,10.13
2018-10-02T18:17:07.902Z,11.27
2018-10-02T18:19:36.678Z,10.93
2018-10-02T18:22:05.366Z,9.53
2018-10-02T18:24:34.074Z,12.47
2018-10-02T18:27:02.844Z,9.50
2018-10-02T18:29:31.623Z,9.93
2018-10-02T18:32:00.333Z,11.63
2018-10-02T18:34:28.991Z,10.73
2018-10-02T18:36:57.771Z,9.63
2018-10-02T18:39:26.588Z,12.50
2018-10-02T18:41:55.349Z,10.30
2018-10-02T18:44:24.062Z,10.27
2018-10-02T18:46:52.797Z,11.77
2018-10-02T18:49:21.479Z,10.67
2018-10-02T18:51:50.159Z,9.47
2018-10-02T18:54:18.912Z,14.90
2018-10-02T18:56:47.628Z,13.83
2018-10-02T18:59:16.446Z,12.30
2018-10-02T19:01:45.212Z,12.77
2018-10-02T19:04:14.018Z,11.43
2018-10-02T19:06:42.746Z,10.57
2018-10-02T19:09:14.862Z,10.80
2018-10-02T19:11:48.631Z,10.77
2018-10-02T19:14:18.367Z,12.63
2018-10-02T19:16:47.041Z,16.83
2018-10-02T19:19:20.845Z,12.87
2018-10-02T19:21:49.601Z,12.03
2018-10-02T19:24:18.359Z,13.23
2018-10-02T19:26:47.054Z,15.77
2018-10-02T19:29:15.706Z,15.03
2018-10-02T19:31:49.506Z,15.63
2018-10-02T19:34:18.164Z,15.27
2018-10-02T19:37:01.457Z,16.47
2018-10-02T19:39:31.848Z,16.77
2018-10-02T19:42:00.874Z,17.70
2018-10-02T19:44:29.633Z,23.53
2018-10-02T19:46:59.969Z,18.57
2018-10-02T19:49:31.050Z,18.80
2018-10-02T19:52:05.954Z,20.53
2018-10-02T19:54:34.733Z,20.23
2018-10-02T19:57:03.543Z,20.30
2018-10-02T19:59:32.333Z,21.60
2018-10-02T20:02:01.027Z,21.73
2018-10-02T20:04:29.805Z,22.33
2018-10-02T20:06:58.529Z,23.53
2018-10-02T20:09:27.298Z,23.33
2018-10-02T20:11:55.964Z,24.37
2018-10-02T20:14:24.682Z,24.93
2018-10-02T20:16:53.442Z,25.03
2018-10-02T20:19:22.154Z,26.17
2018-10-02T20:21:50.850Z,26.73
2018-10-02T20:24:19.577Z,27.57
2018-10-02T20:26:48.369Z,27.43
2018-10-02T20:29:17.078Z,28.90
2018-10-02T20:31:47.560Z,30.53
2018-10-02T20:34:16.244Z,31.00
2018-10-02T20:36:45.071Z,30.87
2018-10-02T20:39:14.003Z,33.03
2018-10-02T20:41:42.790Z,32.90
2018-10-02T20:44:11.547Z,34.63
2018-10-02T20:46:40.286Z,35.07
2018-10-02T20:49:09.179Z,38.57
2018-10-02T20:51:37.826Z,36.00
2018-10-02T20:54:06.534Z,37.40
2018-10-02T20:56:35.295Z,36.17
2018-10-02T20:59:03.971Z,36.37
2018-10-02T21:01:32.678Z,37.97
2018-10-02T21:04:01.431Z,36.40
2018-10-02T21:06:30.185Z,36.97
2018-10-02T21:08:58.897Z,38.30
2018-10-02T21:11:27.672Z,42.03
2018-10-02T21:13:56.447Z,37.07
2018-10-02T21:16:25.194Z,37.23
2018-10-02T21:18:53.849Z,40.20
2018-10-02T21:21:22.558Z,42.27
2018-10-02T21:23:51.236Z,39.63
2018-10-02T21:26:19.942Z,41.77
2018-10-02T21:28:48.739Z,36.60
2018-10-02T21:31:17.476Z,38.73
2018-10-02T21:33:46.172Z,40.73
2018-10-02T21:36:14.906Z,41.30
2018-10-02T21:38:43.588Z,37.93
2018-10-02T21:41:12.324Z,37.83
2018-10-02T21:43:41.043Z,38.27
2018-10-02T21:46:09.809Z,39.90
2018-10-02T21:48:38.495Z,39.00
2018-10-02T21:51:07.236Z,40.13
2018-10-02T21:53:36.024Z,40.07
2018-10-02T21:56:04.785Z,38.93
2018-10-02T21:58:33.519Z,39.30
2018-10-02T22:01:04.156Z,38.73
2018-10-02T22:03:34.828Z,40.27
2018-10-02T22:06:03.579Z,38.80
2018-10-02T22:08:32.382Z,38.03
2018-10-02T22:11:01.158Z,39.43
2018-10-02T22:13:29.973Z,40.17
2018-10-02T22:15:59.054Z,38.30
2018-10-02T22:18:27.838Z,38.37
2018-10-02T22:20:56.934Z,36.10
2018-10-02T22:23:25.830Z,38.87
2018-10-02T22:25:54.513Z,37.50
2018-10-02T22:28:23.131Z,35.60
2018-10-02T22:30:51.862Z,35.63
2018-10-02T22:33:20.667Z,37.03
2018-10-02T22:35:49.356Z,37.17
2018-10-02T22:38:18.186Z,34.93
2018-10-02T22:40:46.877Z,32.33
2018-10-02T22:43:15.541Z,36.63
2018-10-02T22:45:44.260Z,31.67
2018-10-02T22:48:12.989Z,36.90
2018-10-02T22:50:41.748Z,33.00
2018-10-02T22:53:10.430Z,33.80
2018-10-02T22:55:39.209Z,34.10
2018-10-02T22:58:08.017Z,32.63
2018-10-02T23:00:36.813Z,34.77
2018-10-02T23:03:05.616Z,33.20
2018-10-02T23:05:34.304Z,33.67
2018-10-02T23:08:02.997Z,35.90
2018-10-02T23:10:31.774Z,32.83
2018-10-02T23:13:00.434Z,31.63
2018-10-02T23:15:29.194Z,32.23
2018-10-02T23:17:57.882Z,29.57
2018-10-02T23:20:26.672Z,30.63
2018-10-02T23:22:55.429Z,29.93
2018-10-02T23:25:24.166Z,29.33
2018-10-02T23:27:52.903Z,31.80
2018-10-02T23:30:21.746Z,28.80
2018-10-02T23:32:50.472Z,31.63
2018-10-02T23:35:19.223Z,32.10
2018-10-02T23:37:47.970Z,29.93
2018-10-02T23:40:16.682Z,32.53
2018-10-02T23:42:45.426Z,29.17
2018-10-02T23:45:14.158Z,30.07
2018-10-02T23:47:42.862Z,31.47
2018-10-02T23:50:11.665Z,30.43
2018-10-02T23:52:40.329Z,30.00
2018-10-02T23:55:09.010Z,29.43
2018-10-02T23:57:37.671Z,31.83
